Time;durP1;ratioP1;P1;durP2;ratioP2;P2;SDS_P1;SDS_P2;PMS_P1;PMS_P2;Temp;Humidity;BMP_temperature;BMP_pressure;BME280_temperature;BME280_humidity;BME280_pressure;Samples;Min_cycle;Max_cycle;Signal;HPM_P1;HPM_P2
2023/01/19 00:01:46;;;;;;;8.38;4.60;;;;;;;-0.64;98.80;99258.94;5218047;28;20763;-74
2023/01/19 00:04:17;;;;;;;14.35;4.32;;;;;;;-0.81;98.62;99268.53;5217507;28;20570;-74
2023/01/19 00:06:47;;;;;;;9.50;4.68;;;;;;;-0.71;99.38;99259.84;5221247;28;20059;-74
2023/01/19 00:09:18;;;;;;;12.27;5.00;;;;;;;-0.81;99.94;99260.84;5222210;28;20036;-74
2023/01/19 00:11:48;;;;;;;12.10;5.30;;;;;;;-0.73;100.00;99268.44;5215832;28;20028;-74
2023/01/19 00:14:18;;;;;;;8.05;4.30;;;;;;;-0.75;100.00;99268.44;5204288;28;20041;-74
2023/01/19 00:16:48;;;;;;;8.63;4.78;;;;;;;-0.73;100.00;99269.28;5204472;28;20036;-73
2023/01/19 00:19:19;;;;;;;12.45;5.40;;;;;;;-0.68;100.00;99269.22;5205928;28;20778;-75
2023/01/19 00:21:49;;;;;;;14.10;4.68;;;;;;;-0.67;100.00;99273.50;5211121;28;20029;-74
2023/01/19 00:24:19;;;;;;;10.48;4.80;;;;;;;-0.54;100.00;99267.34;5210932;28;20063;-74
2023/01/19 00:26:49;;;;;;;12.60;5.13;;;;;;;-0.35;100.00;99255.97;5209209;28;20032;-74
2023/01/19 00:29:20;;;;;;;10.45;4.00;;;;;;;-0.12;99.42;99253.94;5207974;28;20037;-74
2023/01/19 00:31:50;;;;;;;9.07;4.40;;;;;;;-0.02;98.75;99241.81;5198154;28;20374;-75
2023/01/19 00:34:20;;;;;;;7.40;4.07;;;;;;;0.06;98.04;99239.94;5209231;28;20033;-74
2023/01/19 00:36:51;;;;;;;9.77;4.70;;;;;;;0.12;98.07;99239.88;5195895;28;20045;-74
2023/01/19 00:39:21;;;;;;;10.35;4.15;;;;;;;0.15;98.93;99233.81;5211170;28;20062;-74
2023/01/19 00:44:40;;;;;;;7.88;3.67;;;;;;;0.24;97.46;99243.97;5214899;28;20086;-74
2023/01/19 00:47:10;;;;;;;11.35;4.63;;;;;;;0.29;97.21;99240.47;5188754;28;20040;-74
2023/01/19 00:49:41;;;;;;;10.77;4.32;;;;;;;0.35;96.71;99249.78;5197851;28;20509;-74
2023/01/19 00:52:11;;;;;;;10.00;4.35;;;;;;;0.38;96.46;99252.31;5217429;28;20501;-74
2023/01/19 00:54:41;;;;;;;9.40;4.07;;;;;;;0.42;96.00;99249.63;5207021;28;20056;-74
2023/01/19 00:57:11;;;;;;;11.60;4.55;;;;;;;0.37;96.20;99245.47;5190655;28;20277;-73
2023/01/19 00:59:42;;;;;;;11.27;4.40;;;;;;;0.43;96.04;99235.94;5206215;28;20478;-75
2023/01/19 01:02:12;;;;;;;7.97;3.90;;;;;;;0.44;95.75;99244.47;5210677;28;20350;-75
2023/01/19 01:04:42;;;;;;;9.68;4.30;;;;;;;0.50;96.06;99247.81;5211306;28;20501;-74
2023/01/19 01:07:13;;;;;;;10.07;4.25;;;;;;;0.53;95.69;99246.91;5193438;28;20102;-70
2023/01/19 01:09:43;;;;;;;8.43;4.05;;;;;;;0.58;95.08;99251.06;5210148;28;20053;-75
2023/01/19 01:12:13;;;;;;;8.80;4.03;;;;;;;0.67;95.09;99250.94;5212542;28;20021;-74
2023/01/19 01:14:44;;;;;;;11.75;4.65;;;;;;;0.65;93.95;99250.13;5206439;28;20083;-74
2023/01/19 01:17:14;;;;;;;7.55;3.95;;;;;;;0.64;94.22;99251.00;5188965;28;20384;-74
2023/01/19 01:19:44;;;;;;;12.25;3.80;;;;;;;0.63;94.20;99254.44;5197724;28;20475;-74
2023/01/19 01:22:14;;;;;;;9.98;4.07;;;;;;;0.65;94.72;99250.13;5202647;28;20052;-75
2023/01/19 01:24:45;;;;;;;8.07;3.63;;;;;;;0.69;94.48;99253.50;5209518;28;20045;-75
2023/01/19 01:27:15;;;;;;;9.50;3.90;;;;;;;0.71;94.36;99249.16;5197231;28;20026;-71
2023/01/19 01:29:45;;;;;;;7.97;3.65;;;;;;;0.70;94.19;99250.03;5193077;28;20024;-74
2023/01/19 01:32:16;;;;;;;8.95;3.42;;;;;;;0.70;94.59;99258.59;5202342;28;20035;-74
2023/01/19 01:34:46;;;;;;;8.55;3.50;;;;;;;0.66;94.41;99258.66;5207421;28;20111;-74
2023/01/19 01:37:16;;;;;;;6.40;3.38;;;;;;;0.72;94.36;99258.56;5208623;28;20372;-73
2023/01/19 01:39:47;;;;;;;8.43;3.28;;;;;;;0.72;94.63;99251.69;5209034;28;20591;-74
2023/01/19 01:42:18;;;;;;;7.35;3.47;;;;;;;0.74;93.76;99256.81;5209022;28;20100;-74
2023/01/19 01:44:52;;;;;;;9.38;4.25;;;;;;;0.68;93.93;99262.91;5191697;28;20035;-72
2023/01/19 01:47:35;;;;;;;6.07;3.40;;;;;;;0.63;93.81;99256.16;5196859;28;20112;-75
2023/01/19 01:50:27;;;;;;;7.30;3.55;;;;;;;0.66;93.85;99259.53;5207305;28;20445;-74
2023/01/19 01:53:09;;;;;;;8.63;3.88;;;;;;;0.62;94.64;99263.03;5188676;28;20083;-74
2023/01/19 01:55:48;;;;;;;9.13;3.80;;;;;;;0.75;94.16;99263.66;5209667;28;20037;-74
2023/01/19 01:58:18;;;;;;;7.93;3.50;;;;;;;0.66;94.41;99256.09;5190143;28;20491;-74
2023/01/19 02:03:38;;;;;;;6.72;3.55;;;;;;;0.63;94.55;99264.72;5209459;28;20052;-74
2023/01/19 02:06:09;;;;;;;8.40;3.75;;;;;;;0.61;95.26;99269.03;5208554;28;20387;-74
2023/01/19 02:14:31;;;;;;;8.27;3.67;;;;;;;0.65;94.25;99278.38;5204048;28;20115;-74
2023/01/19 02:17:02;;;;;;;6.60;3.22;;;;;;;0.68;93.92;99277.47;5201446;28;20025;-74
2023/01/19 02:19:42;;;;;;;7.25;3.42;;;;;;;0.55;94.47;99281.13;5206891;28;20032;-74
2023/01/19 02:22:37;;;;;;;7.43;3.30;;;;;;;0.59;94.56;99277.63;5206419;28;20037;-75
2023/01/19 02:25:08;;;;;;;8.80;3.40;;;;;;;0.61;94.34;99279.31;5201418;28;20125;-74
2023/01/19 02:27:38;;;;;;;6.63;3.58;;;;;;;0.65;94.41;99278.38;5208192;28;20112;-74
2023/01/19 02:30:09;;;;;;;8.15;3.83;;;;;;;0.61;94.60;99283.59;5210547;28;20030;-74
2023/01/19 02:32:40;;;;;;;14.57;3.97;;;;;;;0.62;94.46;99283.59;5208942;28;20098;-75
2023/01/19 02:35:11;;;;;;;7.32;3.47;;;;;;;0.61;94.47;99281.03;5207399;28;20045;-74
2023/01/19 02:37:43;;;;;;;7.68;3.70;;;;;;;0.56;94.68;99278.53;5208877;28;20025;-74
2023/01/19 02:40:20;;;;;;;7.50;3.55;;;;;;;0.59;94.94;99278.47;5205865;28;20259;-75
2023/01/19 02:42:55;;;;;;;9.27;3.92;;;;;;;0.58;94.64;99287.06;5203259;28;20014;-73
2023/01/19 02:45:26;;;;;;;7.93;3.85;;;;;;;0.70;94.75;99284.28;5197825;28;20061;-75
2023/01/19 02:47:56;;;;;;;10.95;4.88;;;;;;;0.62;94.60;99278.44;5201981;28;20581;-75
2023/01/19 02:50:33;;;;;;;7.35;3.63;;;;;;;0.61;95.01;99275.88;5191759;28;20040;-74
2023/01/19 02:53:21;;;;;;;10.50;3.72;;;;;;;0.67;95.02;99265.50;5210186;28;20120;-73
2023/01/19 02:56:10;;;;;;;9.60;3.88;;;;;;;0.67;94.68;99261.22;5186989;28;20058;-74
2023/01/19 02:58:53;;;;;;;10.30;3.88;;;;;;;0.66;94.71;99264.66;5210790;28;20021;-73
2023/01/19 03:01:43;;;;;;;9.75;3.55;;;;;;;0.71;94.64;99257.69;5212440;28;20510;-74
2023/01/19 03:04:34;;;;;;;8.05;3.55;;;;;;;0.71;94.73;99257.69;5211747;28;20047;-75
2023/01/19 03:07:15;;;;;;;9.32;4.18;;;;;;;0.76;95.08;99242.22;5242752;22;20061;-74
2023/01/19 03:10:02;;;;;;;7.80;3.70;;;;;;;0.71;94.74;99246.59;5222637;28;20028;-72
2023/01/19 03:13:10;;;;;;;7.88;3.70;;;;;;;0.72;94.87;99238.00;5212387;28;20041;-73
2023/01/19 03:15:49;;;;;;;8.13;3.38;;;;;;;0.73;94.90;99244.84;5206909;28;20036;-74
2023/01/19 03:18:23;;;;;;;10.52;3.58;;;;;;;0.71;95.25;99232.00;5225322;28;20032;-75
2023/01/19 03:20:58;;;;;;;8.80;4.00;;;;;;;0.71;95.26;99237.16;5225175;28;20056;-75
2023/01/19 03:23:31;;;;;;;8.80;3.70;;;;;;;0.76;94.67;99237.91;5233639;28;20497;-73
2023/01/19 03:26:04;;;;;;;7.68;3.67;;;;;;;0.76;95.30;99230.19;5227932;28;20060;-74
2023/01/19 03:28:38;;;;;;;9.32;3.38;;;;;;;0.72;95.32;99236.25;5222708;28;20560;-73
2023/01/19 03:31:16;;;;;;;7.30;3.38;;;;;;;0.66;96.10;99238.97;5217960;28;20498;-74
2023/01/19 03:33:51;;;;;;;6.45;3.25;;;;;;;0.64;96.08;99250.13;5231842;28;20025;-73
2023/01/19 03:36:48;;;;;;;9.85;3.28;;;;;;;0.61;96.40;99256.19;5207780;28;20111;-74
2023/01/19 03:39:23;;;;;;;7.47;3.60;;;;;;;0.61;95.71;99258.75;5232516;28;20548;-72
2023/01/19 03:42:01;;;;;;;13.35;3.83;;;;;;;0.64;95.47;99253.56;5219855;28;20488;-74
2023/01/19 03:44:35;;;;;;;5.88;3.38;;;;;;;0.48;95.97;99266.69;5224312;28;20444;-73
2023/01/19 03:47:08;;;;;;;10.45;3.78;;;;;;;0.45;96.39;99262.47;5225575;28;20448;-72
2023/01/19 03:49:42;;;;;;;6.53;3.65;;;;;;;0.49;96.28;99270.94;5233930;28;20032;-72
2023/01/19 03:52:13;;;;;;;5.80;3.40;;;;;;;0.46;96.60;99266.72;5232548;28;20031;-72
2023/01/19 03:54:43;;;;;;;8.45;3.75;;;;;;;0.57;96.69;99271.69;5215851;28;20024;-73
2023/01/19 03:57:13;;;;;;;8.70;3.67;;;;;;;0.48;97.31;99270.09;5232278;28;20040;-75
2023/01/19 03:59:44;;;;;;;8.27;3.88;;;;;;;0.49;96.73;99266.66;5235501;28;20419;-71
2023/01/19 04:02:14;;;;;;;10.00;4.65;;;;;;;0.57;97.04;99259.66;5233141;28;20402;-75
2023/01/19 04:04:44;;;;;;;7.85;3.75;;;;;;;0.61;96.52;99261.31;5215105;28;20078;-76
2023/01/19 04:07:15;;;;;;;8.30;3.70;;;;;;;0.52;97.05;99260.63;5231605;28;20029;-75
2023/01/19 04:09:45;;;;;;;7.32;3.42;;;;;;;0.56;96.72;99257.97;5234476;28;20020;-71
2023/01/19 04:12:15;;;;;;;6.53;3.60;;;;;;;0.58;97.11;99255.38;5208125;28;20410;-72
2023/01/19 04:14:46;;;;;;;7.85;3.97;;;;;;;0.62;96.85;99252.75;5225866;28;20039;-71
2023/01/19 04:17:16;;;;;;;8.38;4.18;;;;;;;0.63;97.04;99245.88;5201396;28;20033;-73
2023/01/19 04:19:47;;;;;;;7.25;3.83;;;;;;;0.60;96.92;99238.22;5212708;28;20037;-73
2023/01/19 04:22:17;;;;;;;8.48;3.72;;;;;;;0.63;96.71;99239.00;5228333;28;20103;-72
2023/01/19 04:24:47;;;;;;;8.85;3.80;;;;;;;0.59;97.01;99245.06;5231356;28;20127;-72
2023/01/19 04:27:18;;;;;;;8.35;4.10;;;;;;;0.68;96.72;99249.19;5234960;28;20028;-72
2023/01/19 04:29:48;;;;;;;9.63;4.05;;;;;;;0.65;96.17;99244.97;5228762;28;20037;-75
2023/01/19 04:32:18;;;;;;;10.20;4.15;;;;;;;0.65;96.34;99251.81;5235194;28;20458;-74
2023/01/19 04:34:49;;;;;;;9.57;3.42;;;;;;;0.66;96.77;99253.50;5230512;28;20028;-71
2023/01/19 04:37:19;;;;;;;8.57;3.75;;;;;;;0.67;96.44;99253.50;5231427;28;20107;-72
2023/01/19 04:39:50;;;;;;;8.52;3.78;;;;;;;0.61;96.02;99256.19;5231236;28;20643;-72
2023/01/19 04:42:20;;;;;;;10.98;3.88;;;;;;;0.57;96.56;99261.41;5227873;28;20095;-72
2023/01/19 04:44:51;;;;;;;6.75;3.60;;;;;;;0.60;96.28;99259.63;5223381;28;20088;-72
2023/01/19 04:47:21;;;;;;;12.10;4.13;;;;;;;0.61;96.00;99256.19;5220698;28;20494;-72
2023/01/19 04:49:51;;;;;;;7.20;3.67;;;;;;;0.52;96.09;99265.78;5234720;28;20035;-73
2023/01/19 04:52:22;;;;;;;8.50;3.50;;;;;;;0.56;97.03;99260.53;5230048;28;20103;-73
2023/01/19 04:54:52;;;;;;;8.57;3.78;;;;;;;0.60;96.31;99264.78;5229985;28;20036;-73
2023/01/19 04:57:22;;;;;;;6.85;3.60;;;;;;;0.54;97.17;99262.28;5234256;28;20036;-72
2023/01/19 04:59:53;;;;;;;7.72;3.63;;;;;;;0.49;97.67;99253.81;5227741;28;20051;-72
2023/01/19 05:02:24;;;;;;;6.93;3.88;;;;;;;0.49;97.36;99261.53;5214313;28;20040;-73
2023/01/19 05:04:54;;;;;;;8.48;3.97;;;;;;;0.57;97.31;99259.66;5209294;28;20135;-72
2023/01/19 05:07:24;;;;;;;7.72;3.55;;;;;;;0.53;96.98;99258.03;5230224;28;20035;-74
2023/01/19 05:09:54;;;;;;;7.63;3.92;;;;;;;0.55;97.63;99251.13;5214527;28;20042;-72
2023/01/19 05:12:25;;;;;;;7.90;3.58;;;;;;;0.56;96.82;99254.56;5222844;28;20450;-75
2023/01/19 05:14:55;;;;;;;7.38;3.22;;;;;;;0.63;96.54;99258.72;5205686;28;20021;-72
2023/01/19 05:17:25;;;;;;;12.20;4.30;;;;;;;0.52;96.44;99261.47;5229531;28;20028;-72
2023/01/19 05:19:56;;;;;;;8.00;3.78;;;;;;;0.54;96.72;99259.72;5207120;28;20433;-74
2023/01/19 05:22:26;;;;;;;7.65;4.03;;;;;;;0.49;97.38;99265.81;5232205;28;20031;-72
2023/01/19 05:24:56;;;;;;;8.63;4.30;;;;;;;0.41;97.82;99260.78;5230118;28;20036;-72
2023/01/19 05:27:27;;;;;;;10.38;4.57;;;;;;;0.49;97.32;99265.81;5233029;28;20032;-73
2023/01/19 05:29:57;;;;;;;11.73;3.95;;;;;;;0.51;97.44;99275.19;5228013;28;20509;-72
2023/01/19 05:32:27;;;;;;;9.90;3.65;;;;;;;0.49;97.25;99271.81;5233243;28;20496;-73
2023/01/19 05:34:58;;;;;;;8.98;4.18;;;;;;;0.47;97.52;99281.25;5229693;28;20027;-72
2023/01/19 05:37:28;;;;;;;9.40;5.07;;;;;;;0.41;97.44;99268.50;5204837;28;20025;-72
2023/01/19 05:39:58;;;;;;;11.05;5.13;;;;;;;0.49;97.20;99266.66;5225345;28;20543;-75
2023/01/19 05:42:28;;;;;;;9.50;4.15;;;;;;;0.49;97.22;99279.50;5207140;28;20163;-73
2023/01/19 05:44:59;;;;;;;9.60;4.38;;;;;;;0.59;96.58;99272.50;5221543;28;20025;-74
2023/01/19 05:47:29;;;;;;;9.38;4.82;;;;;;;0.51;96.74;99264.91;5225601;28;20154;-74
2023/01/19 05:50:00;;;;;;;10.20;4.40;;;;;;;0.50;97.06;99268.34;5225962;28;20117;-73
2023/01/19 05:52:30;;;;;;;13.48;5.88;;;;;;;0.55;96.99;99268.28;5230849;28;20029;-72
2023/01/19 05:55:00;;;;;;;10.77;4.43;;;;;;;0.55;96.89;99276.81;5227227;28;20020;-73
2023/01/19 05:57:31;;;;;;;10.88;4.30;;;;;;;0.72;96.39;99272.25;5209210;28;20441;-73
2023/01/19 06:00:04;;;;;;;11.15;5.18;;;;;;;0.71;95.94;99262.00;5226025;28;20035;-74
2023/01/19 06:02:34;;;;;;;12.45;4.40;;;;;;;0.66;96.70;99280.06;5227549;28;20029;-73
2023/01/19 06:05:05;;;;;;;9.68;4.13;;;;;;;0.65;96.38;99267.25;5230437;28;20039;-73
2023/01/19 06:07:35;;;;;;;9.10;4.50;;;;;;;0.64;96.55;99271.53;5225947;28;20490;-74
2023/01/19 06:10:06;;;;;;;11.00;4.70;;;;;;;0.62;96.68;99275.00;5222177;28;20034;-73
2023/01/19 06:12:39;;;;;;;12.60;4.70;;;;;;;0.65;96.79;99273.25;5202787;28;20021;-73
2023/01/19 06:15:10;;;;;;;10.35;4.40;;;;;;;0.69;96.27;99274.88;5223815;28;20029;-72
2023/01/19 06:17:41;;;;;;;8.43;4.32;;;;;;;0.73;96.71;99291.09;5226601;28;20089;-73
2023/01/19 06:20:13;;;;;;;8.45;4.18;;;;;;;0.72;96.47;99297.13;5221335;28;20025;-75
2023/01/19 06:22:43;;;;;;;14.88;4.90;;;;;;;0.66;96.38;99289.50;5222378;28;20040;-73
2023/01/19 06:25:13;;;;;;;13.30;5.95;;;;;;;0.71;96.42;99288.53;5218758;28;20021;-75
2023/01/19 06:27:44;;;;;;;12.93;4.93;;;;;;;0.56;96.97;99293.94;5223336;28;20025;-75
2023/01/19 06:30:16;;;;;;;11.65;4.93;;;;;;;0.80;96.57;99292.69;5204067;28;20048;-72
2023/01/19 06:32:46;;;;;;;8.23;4.32;;;;;;;0.65;96.51;99301.50;5207103;28;20032;-75
2023/01/19 06:35:17;;;;;;;10.80;4.95;;;;;;;0.62;96.62;99309.28;5231221;28;20029;-74
2023/01/19 06:37:47;;;;;;;9.88;5.03;;;;;;;0.62;96.62;99318.69;5229593;28;20509;-73
2023/01/19 06:40:17;;;;;;;11.65;5.22;;;;;;;0.72;96.72;99315.94;5225675;28;20025;-74
2023/01/19 06:42:48;;;;;;;9.65;4.10;;;;;;;0.79;96.74;99312.41;5227066;28;20017;-73
2023/01/19 06:45:18;;;;;;;9.98;4.63;;;;;;;0.79;96.74;99312.41;5228788;28;20033;-73
2023/01/19 06:47:49;;;;;;;15.18;5.68;;;;;;;0.82;97.09;99308.94;5228986;28;20033;-73
2023/01/19 06:50:19;;;;;;;8.35;4.15;;;;;;;0.88;96.33;99314.81;5236968;28;20032;-73
2023/01/19 06:52:50;;;;;;;9.35;4.13;;;;;;;0.91;96.63;99316.50;5233433;28;20083;-74
2023/01/19 06:55:20;;;;;;;15.48;5.90;;;;;;;1.00;95.98;99312.03;5237197;28;20039;-72
2023/01/19 06:57:58;;;;;;;12.18;5.35;;;;;;;0.99;96.12;99325.78;5225660;28;20284;-74
2023/01/19 07:00:28;;;;;;;11.13;4.88;;;;;;;1.07;96.04;99335.94;5213011;28;20103;-73
2023/01/19 07:02:59;;;;;;;12.02;5.57;;;;;;;0.94;95.99;99332.72;5231676;28;20017;-73
2023/01/19 07:05:29;;;;;;;11.18;5.28;;;;;;;0.99;95.90;99336.06;5224884;28;20048;-73
2023/01/19 07:07:59;;;;;;;13.48;4.80;;;;;;;1.03;95.40;99334.28;5229469;28;20463;-73
2023/01/19 07:10:30;;;;;;;11.10;4.85;;;;;;;1.09;96.06;99327.28;5231101;28;20087;-73
2023/01/19 07:13:00;;;;;;;9.73;4.68;;;;;;;1.08;95.70;99330.72;5231417;28;20029;-75
2023/01/19 07:15:30;;;;;;;13.45;6.07;;;;;;;1.09;95.23;99332.44;5229458;28;20462;-73
2023/01/19 07:18:04;;;;;;;11.02;5.47;;;;;;;1.05;96.06;99337.69;5232188;28;20033;-73
2023/01/19 07:20:35;;;;;;;10.32;4.90;;;;;;;1.02;95.90;99336.00;5229765;28;20074;-73
2023/01/19 07:23:06;;;;;;;12.52;5.15;;;;;;;1.16;95.73;99334.03;5214654;28;20052;-74
2023/01/19 07:25:37;;;;;;;10.50;4.43;;;;;;;1.20;95.31;99345.13;5230548;28;20525;-73
2023/01/19 07:28:07;;;;;;;9.23;4.88;;;;;;;1.17;95.17;99350.31;5233114;28;20029;-74
2023/01/19 07:30:37;;;;;;;9.95;4.75;;;;;;;1.16;95.64;99354.63;5218643;28;20028;-74
2023/01/19 07:33:08;;;;;;;8.05;3.90;;;;;;;1.25;95.16;99362.16;5214216;28;20325;-75
2023/01/19 07:35:38;;;;;;;9.18;3.97;;;;;;;1.24;95.08;99359.63;5211883;28;20112;-75
2023/01/19 07:38:08;;;;;;;9.15;4.35;;;;;;;1.38;94.61;99360.22;5234320;28;20107;-75
2023/01/19 07:40:40;;;;;;;6.88;3.92;;;;;;;1.43;94.75;99366.13;5228651;28;20052;-74
2023/01/19 07:43:10;;;;;;;8.68;3.67;;;;;;;1.45;93.43;99352.38;5223621;28;20047;-74
2023/01/19 07:45:40;;;;;;;10.05;3.95;;;;;;;1.40;93.41;99356.72;5228531;28;20032;-74
2023/01/19 07:48:12;;;;;;;11.55;4.30;;;;;;;1.40;93.35;99358.47;5227791;28;20149;-73
2023/01/19 07:50:42;;;;;;;7.40;3.65;;;;;;;1.49;93.13;99360.84;5225589;28;20056;-73
2023/01/19 07:53:12;;;;;;;8.25;3.78;;;;;;;1.52;93.16;99359.06;5231715;28;20497;-76
2023/01/19 07:55:43;;;;;;;6.82;3.50;;;;;;;1.78;91.85;99369.69;5231417;28;20078;-74
2023/01/19 07:58:13;;;;;;;8.63;4.03;;;;;;;2.00;90.84;99360.69;5214928;28;20496;-73
2023/01/19 08:00:43;;;;;;;6.28;3.45;;;;;;;2.67;89.18;99363.47;5224165;28;20386;-73
2023/01/19 08:03:14;;;;;;;6.68;3.35;;;;;;;3.24;86.87;99370.63;5225808;28;20036;-75
2023/01/19 08:05:50;;;;;;;6.43;3.33;;;;;;;4.09;83.29;99357.88;5234565;28;20078;-74
2023/01/19 08:08:20;;;;;;;8.20;3.28;;;;;;;4.38;81.26;99354.44;5234010;28;20020;-73
2023/01/19 08:10:51;;;;;;;8.35;3.50;;;;;;;3.72;80.82;99362.41;5227062;28;20024;-74
2023/01/19 08:13:21;;;;;;;7.18;3.75;;;;;;;4.67;79.59;99352.63;5226459;28;20028;-73
2023/01/19 08:15:52;;;;;;;6.93;3.50;;;;;;;5.04;78.49;99342.81;5227779;28;20021;-73
2023/01/19 08:18:23;;;;;;;8.07;3.70;;;;;;;4.87;77.39;99346.84;5228577;28;20036;-73
2023/01/19 08:20:53;;;;;;;6.75;3.10;;;;;;;4.87;78.25;99355.47;5226478;28;20028;-76
2023/01/19 08:23:23;;;;;;;4.97;2.90;;;;;;;3.94;79.77;99352.31;5232045;28;20024;-75
2023/01/19 08:25:54;;;;;;;6.13;3.30;;;;;;;3.59;82.08;99353.28;5229759;28;20039;-73
2023/01/19 08:28:24;;;;;;;6.32;3.30;;;;;;;3.43;83.12;99345.16;5214276;28;20115;-74
2023/01/19 08:30:55;;;;;;;5.45;3.20;;;;;;;3.09;85.50;99352.09;5231159;28;20029;-74
2023/01/19 08:33:25;;;;;;;6.38;3.35;;;;;;;2.89;88.39;99352.56;5229483;28;20118;-74
2023/01/19 08:35:55;;;;;;;7.82;3.38;;;;;;;2.62;90.06;99366.16;5234241;28;20619;-75
2023/01/19 08:38:26;;;;;;;7.80;3.63;;;;;;;2.46;90.90;99361.34;5234176;28;20112;-74
2023/01/19 08:40:56;;;;;;;7.22;3.50;;;;;;;2.39;92.07;99364.97;5207422;28;20025;-73
2023/01/19 08:43:27;;;;;;;9.80;4.25;;;;;;;2.28;92.51;99359.19;5216490;28;20107;-73
2023/01/19 08:45:58;;;;;;;8.85;3.70;;;;;;;2.23;93.05;99366.19;5208725;28;20075;-75
2023/01/19 08:48:28;;;;;;;8.23;3.70;;;;;;;2.29;93.48;99366.03;5228147;28;20056;-74
2023/01/19 08:50:59;;;;;;;7.65;3.72;;;;;;;2.21;94.05;99373.09;5228641;28;20035;-74
2023/01/19 08:53:29;;;;;;;7.05;3.08;;;;;;;2.16;94.12;99370.63;5228840;28;20029;-74
2023/01/19 08:56:01;;;;;;;6.75;3.90;;;;;;;2.11;93.31;99358.72;5207247;28;20053;-75
2023/01/19 08:58:31;;;;;;;5.60;2.95;;;;;;;2.13;93.47;99368.09;5211950;28;20024;-73
2023/01/19 09:01:01;;;;;;;6.80;3.53;;;;;;;2.19;93.38;99359.41;5213738;28;20418;-75
2023/01/19 09:03:32;;;;;;;7.55;3.58;;;;;;;2.20;94.31;99361.09;5231507;28;20034;-73
2023/01/19 09:06:06;;;;;;;6.88;3.50;;;;;;;2.17;93.85;99367.16;5247750;22;20042;-72
2023/01/19 09:08:37;;;;;;;11.00;4.82;;;;;;;2.16;93.63;99369.78;5207957;28;20029;-72
2023/01/19 09:11:12;;;;;;;6.57;3.70;;;;;;;2.42;93.63;99362.31;5195821;28;20495;-72
2023/01/19 09:13:43;;;;;;;;;;;;;;;2.56;92.94;99365.44;5200790;28;20033;-72
2023/01/19 09:16:14;;;;;;;8.05;4.03;;;;;;;2.80;92.08;99362.25;5204612;28;19919;-72
2023/01/19 09:18:45;;;;;;;9.05;4.32;;;;;;;2.85;91.52;99355.28;5183988;28;20029;-72
2023/01/19 09:21:15;;;;;;;7.47;4.13;;;;;;;2.76;92.50;99364.09;5203647;28;20059;-72
2023/01/19 09:23:45;;;;;;;6.25;3.47;;;;;;;2.74;90.84;99372.75;5213088;28;20103;-71
2023/01/19 09:26:16;;;;;;;9.95;4.18;;;;;;;2.77;89.44;99375.25;5208083;28;20128;-72
2023/01/19 09:28:46;;;;;;;7.60;3.15;;;;;;;2.91;89.35;99379.19;5213615;28;20479;-72
2023/01/19 09:31:16;;;;;;;8.25;3.65;;;;;;;3.09;87.43;99375.31;5209922;28;20116;-72
2023/01/19 09:33:47;;;;;;;5.65;3.28;;;;;;;3.09;87.49;99385.63;5189595;28;20026;-71
2023/01/19 09:36:17;;;;;;;8.65;3.90;;;;;;;3.17;87.44;99386.31;5194953;28;20041;-72
2023/01/19 09:38:47;;;;;;;8.50;3.70;;;;;;;2.97;88.10;99378.19;5205260;28;20029;-72
2023/01/19 09:41:20;;;;;;;8.48;3.63;;;;;;;2.88;87.90;99376.66;5203034;28;20063;-72
2023/01/19 09:43:56;;;;;;;6.32;3.42;;;;;;;2.83;88.56;99367.38;5200738;28;20148;-72
2023/01/19 09:46:47;;;;;;;6.80;3.20;;;;;;;2.83;88.70;99364.78;5205417;28;20029;-72
2023/01/19 09:49:38;;;;;;;7.72;3.58;;;;;;;2.73;89.27;99369.31;5189115;28;20080;-72
2023/01/19 09:52:14;;;;;;;9.48;4.28;;;;;;;2.72;88.98;99377.91;5201278;28;20454;-71
2023/01/19 09:54:56;;;;;;;8.27;3.63;;;;;;;2.84;88.50;99374.22;5203141;28;20024;-71
2023/01/19 09:57:26;;;;;;;7.65;4.10;;;;;;;2.72;88.87;99392.56;5206043;28;20033;-72
2023/01/19 09:59:58;;;;;;;8.27;3.97;;;;;;;2.81;88.52;99387.16;5204542;28;20032;-72
2023/01/19 10:02:31;;;;;;;8.77;4.13;;;;;;;2.73;89.16;99395.13;5188399;28;20394;-72
2023/01/19 10:05:01;;;;;;;11.63;4.32;;;;;;;2.75;89.85;99401.09;5210074;28;20057;-72
2023/01/19 10:07:32;;;;;;;7.85;3.88;;;;;;;2.79;89.59;99388.94;5210521;28;20118;-72
2023/01/19 10:10:20;;;;;;;6.63;3.92;;;;;;;2.82;89.97;99394.06;5200029;28;20025;-72
2023/01/19 10:13:17;;;;;;;7.30;3.80;;;;;;;2.89;89.59;99380.94;5209971;28;20025;-72
2023/01/19 10:15:58;;;;;;;7.68;4.05;;;;;;;2.87;90.10;99379.31;5211379;28;20086;-72
2023/01/19 10:18:47;;;;;;;9.23;4.18;;;;;;;2.88;89.16;99381.81;5200302;28;20121;-72
2023/01/19 10:21:25;;;;;;;6.80;3.88;;;;;;;2.91;88.62;99384.38;5202782;28;20036;-72
2023/01/19 10:24:29;;;;;;;8.98;4.65;;;;;;;2.85;89.71;99399.13;5203765;28;20471;-73
2023/01/19 10:26:59;;;;;;;9.60;4.63;;;;;;;2.78;90.22;99392.41;5203202;28;20038;-72
2023/01/19 10:29:36;;;;;;;8.32;4.30;;;;;;;2.85;90.53;99392.22;5199547;28;20040;-72
2023/01/19 10:32:16;;;;;;;13.02;4.60;;;;;;;2.81;90.69;99398.34;5205092;28;20032;-72
2023/01/19 10:34:48;;;;;;;8.10;4.50;;;;;;;2.87;89.73;99392.22;5208022;28;20086;-72
2023/01/19 10:37:28;;;;;;;9.63;4.50;;;;;;;2.83;89.22;99391.41;5199850;28;20025;-72
2023/01/19 10:40:08;;;;;;;8.80;4.20;;;;;;;2.91;89.45;99383.50;5195268;28;20483;-72
2023/01/19 10:42:40;;;;;;;10.68;4.70;;;;;;;2.81;89.43;99388.03;5205101;28;20120;-72
2023/01/19 10:45:19;;;;;;;7.97;4.43;;;;;;;2.76;90.02;99389.00;5196143;28;21834;-72
2023/01/19 10:47:52;;;;;;;10.52;4.45;;;;;;;2.73;91.12;99391.69;5201718;28;20065;-72
2023/01/19 10:50:28;;;;;;;9.43;4.38;;;;;;;2.74;91.00;99390.78;5180194;28;20158;-73
2023/01/19 10:53:02;;;;;;;7.93;4.05;;;;;;;2.73;91.19;99389.09;5208156;28;20033;-72
2023/01/19 10:55:33;;;;;;;10.10;4.82;;;;;;;2.60;91.46;99392.84;5205685;28;20041;-72
2023/01/19 10:58:05;;;;;;;10.07;4.18;;;;;;;2.70;92.15;99402.06;5208747;28;21286;-72
2023/01/19 11:00:36;;;;;;;7.00;3.95;;;;;;;2.64;92.24;99397.03;5202906;28;20041;-72
2023/01/19 11:03:23;;;;;;;9.35;5.05;;;;;;;2.68;92.16;99396.09;5208011;28;20382;-72
2023/01/19 11:06:19;;;;;;;6.07;3.95;;;;;;;2.65;92.13;99396.19;5206909;28;20487;-71
2023/01/19 11:08:51;;;;;;;;;;;;;;;2.60;92.76;99398.00;5206709;28;20499;-72
2023/01/19 11:11:23;;;;;;;8.70;4.18;;;;;;;2.73;93.34;99399.41;5196941;28;19920;-72
2023/01/19 11:14:11;;;;;;;7.90;3.92;;;;;;;2.65;92.98;99396.19;5186646;28;20525;-72
2023/01/19 11:16:46;;;;;;;7.05;4.40;;;;;;;2.78;93.17;99402.72;5204743;28;20036;-72
2023/01/19 11:19:25;;;;;;;7.38;4.07;;;;;;;2.81;92.70;99402.66;5203745;28;20032;-72
2023/01/19 11:22:21;;;;;;;8.77;4.63;;;;;;;2.73;94.21;99395.13;5208040;28;20116;-72
2023/01/19 11:24:56;;;;;;;9.65;5.20;;;;;;;2.77;93.50;99395.88;5205438;28;20033;-72
2023/01/19 11:27:27;;;;;;;9.32;4.93;;;;;;;3.01;93.60;99392.72;5196816;28;20031;-72
2023/01/19 11:30:09;;;;;;;6.75;4.35;;;;;;;2.97;93.89;99401.41;5208357;28;20442;-72
2023/01/19 11:32:40;;;;;;;7.13;4.22;;;;;;;3.15;93.64;99390.63;5212065;28;20036;-72
2023/01/19 11:35:29;;;;;;;6.90;4.15;;;;;;;3.15;93.53;99395.78;5213446;28;20037;-72
2023/01/19 11:38:11;;;;;;;8.20;4.40;;;;;;;3.26;92.40;99396.38;5206830;28;20501;-72
2023/01/19 11:40:49;;;;;;;7.88;4.65;;;;;;;3.04;93.36;99396.06;5205698;28;20036;-72
2023/01/19 11:43:22;;;;;;;8.38;4.50;;;;;;;3.10;93.36;99397.66;5208556;28;20020;-72
2023/01/19 11:45:54;;;;;;;11.65;5.20;;;;;;;3.13;93.41;99394.97;5200796;28;20026;-72
2023/01/19 11:48:38;;;;;;;9.25;4.38;;;;;;;3.27;92.98;99396.34;5187879;28;20406;-72
2023/01/19 11:51:14;;;;;;;8.10;4.47;;;;;;;3.38;93.34;99390.91;5202556;28;20042;-72
2023/01/19 11:53:50;;;;;;;9.93;5.40;;;;;;;3.37;93.42;99386.63;5211312;28;20075;-73
2023/01/19 11:56:27;;;;;;;10.38;5.05;;;;;;;3.29;93.90;99391.13;5210809;28;20025;-72
2023/01/19 11:58:58;;;;;;;7.55;4.00;;;;;;;3.37;92.91;99395.22;5204432;28;20060;-72
2023/01/19 12:01:32;;;;;;;8.10;4.95;;;;;;;3.23;93.55;99397.28;5206153;28;20506;-72
2023/01/19 12:04:13;;;;;;;10.32;4.70;;;;;;;3.25;93.45;99400.72;5213242;28;20025;-72
2023/01/19 12:06:51;;;;;;;7.28;4.18;;;;;;;2.88;95.63;99399.06;5207865;28;20065;-72
2023/01/19 12:09:43;;;;;;;8.52;4.75;;;;;;;3.09;95.71;99394.22;5193941;28;20132;-72
2023/01/19 12:12:28;;;;;;;9.15;5.00;;;;;;;3.15;94.61;99395.78;5204221;28;20052;-72
2023/01/19 12:15:00;;;;;;;8.40;4.70;;;;;;;3.11;95.00;99397.63;5206972;28;20025;-72
2023/01/19 12:17:45;;;;;;;9.10;5.25;;;;;;;2.98;96.17;99396.22;5190164;28;20090;-72
2023/01/19 12:20:36;;;;;;;9.77;4.90;;;;;;;2.93;97.70;99397.22;5201903;28;20096;-72